Time;durP1;ratioP1;P1;durP2;ratioP2;P2;SDS_P1;SDS_P2;PMS_P1;PMS_P2;Temp;Humidity;BMP_temperature;BMP_pressure;BME280_temperature;BME280_humidity;BME280_pressure;Samples;Min_cycle;Max_cycle;Signal;HPM_P1;HPM_P2
2022/07/05 00:00:49;;;;;;;0.00;0.00;;;20.70;99.90;;;;;;5092919;28;20036;-76
2022/07/05 00:03:15;;;;;;;0.00;0.00;;;21.00;99.90;;;;;;5092822;28;20081;-77
2022/07/05 00:05:42;;;;;;;0.00;0.00;;;20.80;99.90;;;;;;5091506;28;20023;-76
2022/07/05 00:08:08;;;;;;;0.00;0.00;;;20.80;99.90;;;;;;5091696;28;20016;-76
2022/07/05 00:10:35;;;;;;;0.00;0.00;;;20.70;99.90;;;;;;5091966;28;20024;-76
2022/07/05 00:13:02;;;;;;;0.00;0.00;;;20.60;99.90;;;;;;5091872;28;20502;-76
2022/07/05 00:15:28;;;;;;;0.00;0.00;;;20.60;99.90;;;;;;5091464;28;20032;-76
2022/07/05 00:17:54;;;;;;;28.15;1.77;;;20.70;99.90;;;;;;5092995;28;20140;-76
2022/07/05 00:20:20;;;;;;;0.00;0.00;;;20.70;99.50;;;;;;5092703;28;20073;-76
2022/07/05 00:22:47;;;;;;;1.67;0.10;;;20.70;98.40;;;;;;5091036;28;20120;-77
2022/07/05 00:25:13;;;;;;;0.25;0.13;;;20.30;99.90;;;;;;5090509;28;20028;-77
2022/07/05 00:27:39;;;;;;;0.00;0.00;;;20.00;99.90;;;;;;5091650;28;20028;-77
2022/07/05 00:30:06;;;;;;;0.00;0.00;;;19.90;99.90;;;;;;5090970;28;20085;-77
2022/07/05 00:32:32;;;;;;;0.00;0.00;;;20.00;99.90;;;;;;5092602;28;20099;-76
2022/07/05 00:34:58;;;;;;;0.25;0.10;;;20.10;99.90;;;;;;5092551;28;20077;-76
2022/07/05 00:37:25;;;;;;;0.00;0.00;;;19.90;99.90;;;;;;5092409;28;20067;-76
2022/07/05 00:39:51;;;;;;;0.00;0.00;;;19.70;99.90;;;;;;5095630;28;20024;-76
2022/07/05 00:42:17;;;;;;;0.00;0.00;;;19.70;99.90;;;;;;5098748;28;20024;-76
2022/07/05 00:44:44;;;;;;;3.40;0.20;;;19.50;99.90;;;;;;5094983;28;20507;-76
2022/07/05 00:47:11;;;;;;;0.00;0.00;;;19.40;99.90;;;;;;5092635;28;20089;-76
2022/07/05 00:49:38;;;;;;;0.13;0.13;;;19.30;99.90;;;;;;5092484;28;20048;-77
2022/07/05 00:52:05;;;;;;;0.00;0.00;;;19.10;99.90;;;;;;5107620;28;20020;-76
2022/07/05 00:54:35;;;;;;;0.90;0.68;;;19.10;99.90;;;;;;5113096;28;20071;-76
2022/07/05 00:57:02;;;;;;;4.95;0.47;;;19.10;99.90;;;;;;5095592;28;20510;-75
2022/07/05 00:59:28;;;;;;;1.55;1.35;;;19.10;99.90;;;;;;5096029;28;20028;-76
2022/07/05 01:01:55;;;;;;;0.00;0.00;;;18.80;99.90;;;;;;5095770;28;20097;-76
2022/07/05 01:04:21;;;;;;;0.00;0.00;;;18.80;99.90;;;;;;5079184;28;20033;-76
2022/07/05 01:06:49;;;;;;;0.00;0.00;;;18.70;99.90;;;;;;5074146;28;20020;-76
2022/07/05 01:09:18;;;;;;;0.00;0.00;;;18.90;99.90;;;;;;5091582;28;20024;-76
2022/07/05 01:11:48;;;;;;;0.00;0.00;;;18.90;99.90;;;;;;5090160;28;20027;-76
2022/07/05 01:14:19;;;;;;;0.98;0.47;;;18.90;99.90;;;;;;5095463;28;20044;-76
2022/07/05 01:16:47;;;;;;;1.08;1.02;;;19.00;99.90;;;;;;5094494;28;20028;-76
2022/07/05 01:19:13;;;;;;;0.10;0.10;;;19.20;99.90;;;;;;5094311;28;20038;-75
2022/07/05 01:21:43;;;;;;;0.00;0.00;;;18.90;99.90;;;;;;5095416;28;20077;-76
2022/07/05 01:24:11;;;;;;;0.00;0.00;;;18.50;99.90;;;;;;5093111;28;20099;-76
2022/07/05 01:26:38;;;;;;;0.00;0.00;;;18.30;99.90;;;;;;5094849;28;20070;-77
2022/07/05 01:29:05;;;;;;;0.00;0.00;;;18.50;99.90;;;;;;5093647;28;20024;-78
2022/07/05 01:31:31;;;;;;;0.00;0.00;;;18.60;99.90;;;;;;5093045;28;20091;-76
2022/07/05 01:33:58;;;;;;;0.00;0.00;;;18.80;99.90;;;;;;5092857;28;20082;-77
2022/07/05 01:36:25;;;;;;;0.00;0.00;;;18.90;99.90;;;;;;5093819;28;20452;-76
2022/07/05 01:38:51;;;;;;;0.00;0.00;;;19.00;99.90;;;;;;5093994;28;20024;-76
2022/07/05 01:41:17;;;;;;;26.77;24.23;;;18.70;99.90;;;;;;5089812;28;20413;-76
2022/07/05 01:43:43;;;;;;;0.00;0.00;;;19.00;99.90;;;;;;5091975;28;20024;-76
2022/07/05 01:46:12;;;;;;;0.00;0.00;;;19.20;99.90;;;;;;5092127;28;20024;-76
2022/07/05 01:48:39;;;;;;;19.25;5.70;;;19.30;99.90;;;;;;5092745;28;20582;-76
2022/07/05 01:51:13;;;;;;;0.00;0.00;;;19.00;99.90;;;;;;5083540;28;20032;-76
2022/07/05 01:53:40;;;;;;;0.15;0.15;;;19.10;99.90;;;;;;5083677;28;20048;-77
2022/07/05 01:56:07;;;;;;;0.00;0.00;;;19.00;99.90;;;;;;5088550;28;20063;-78
2022/07/05 01:58:33;;;;;;;0.00;0.00;;;18.70;99.90;;;;;;5090398;28;20025;-74
2022/07/05 02:00:59;;;;;;;0.00;0.00;;;18.70;99.90;;;;;;5088825;28;20031;-77
2022/07/05 02:03:26;;;;;;;0.00;0.00;;;18.30;99.90;;;;;;5092933;28;20373;-77
2022/07/05 02:05:53;;;;;;;0.00;0.00;;;18.00;99.90;;;;;;5093412;28;20081;-74
2022/07/05 02:08:20;;;;;;;0.00;0.00;;;17.80;99.90;;;;;;5089626;28;20369;-77
2022/07/05 02:10:47;;;;;;;0.00;0.00;;;17.70;99.90;;;;;;5088196;28;20020;-76
2022/07/05 02:13:14;;;;;;;0.00;0.00;;;17.60;99.90;;;;;;5092255;28;20047;-75
2022/07/05 02:15:41;;;;;;;0.00;0.00;;;17.70;99.90;;;;;;5091475;28;20059;-75
2022/07/05 02:18:08;;;;;;;0.00;0.00;;;17.40;99.90;;;;;;5092693;28;20020;-76
2022/07/05 02:20:37;;;;;;;0.00;0.00;;;17.00;99.90;;;;;;5091660;28;20028;-76
2022/07/05 02:23:03;;;;;;;0.10;0.10;;;17.10;99.90;;;;;;5092938;28;20031;-74
2022/07/05 02:25:29;;;;;;;0.00;0.00;;;17.00;99.90;;;;;;5089642;28;20035;-78
2022/07/05 02:27:56;;;;;;;0.00;0.00;;;16.70;99.90;;;;;;5099689;28;20015;-76
2022/07/05 02:30:22;;;;;;;1.58;1.48;;;16.60;99.90;;;;;;5091551;27;20020;-76
2022/07/05 02:32:49;;;;;;;0.00;0.00;;;16.60;99.90;;;;;;5082687;28;20464;-76
2022/07/05 02:35:15;;;;;;;0.00;0.00;;;16.30;99.90;;;;;;5090246;28;20028;-76
2022/07/05 02:37:42;;;;;;;0.30;0.30;;;16.00;99.90;;;;;;5114873;27;20384;-76
2022/07/05 02:40:10;;;;;;;0.22;0.15;;;15.40;99.90;;;;;;5083923;28;20031;-79
2022/07/05 02:42:37;;;;;;;0.00;0.00;;;15.30;99.90;;;;;;5092080;28;20400;-78
2022/07/05 02:45:03;;;;;;;0.00;0.00;;;15.40;99.90;;;;;;5090729;28;20032;-79
2022/07/05 02:47:31;;;;;;;0.00;0.00;;;15.40;99.90;;;;;;5092022;28;20027;-79
2022/07/05 02:49:59;;;;;;;0.00;0.00;;;15.40;99.90;;;;;;5100783;28;20051;-77
2022/07/05 02:52:25;;;;;;;5.95;0.20;;;15.20;99.90;;;;;;5103726;28;20035;-77
2022/07/05 02:54:51;;;;;;;0.10;0.10;;;15.20;99.90;;;;;;5099207;28;20040;-78
2022/07/05 02:57:17;;;;;;;19.45;8.73;;;15.30;99.90;;;;;;5090565;28;20020;-78
2022/07/05 02:59:43;;;;;;;2.72;0.65;;;15.30;99.90;;;;;;5094489;28;20512;-78
2022/07/05 03:02:09;;;;;;;0.10;0.10;;;15.40;99.90;;;;;;5089636;28;20047;-80
2022/07/05 03:04:35;;;;;;;10.13;6.25;;;15.60;99.90;;;;;;5091103;28;20059;-79
2022/07/05 03:07:01;;;;;;;4.10;1.17;;;15.60;99.90;;;;;;5096422;28;20054;-80
2022/07/05 03:09:27;;;;;;;4.57;2.22;;;15.60;99.90;;;;;;5091614;28;20020;-80
2022/07/05 03:11:53;;;;;;;0.05;0.03;;;15.60;99.90;;;;;;5092825;28;20024;-78
2022/07/05 03:14:20;;;;;;;0.45;0.22;;;15.60;99.90;;;;;;5090129;28;20058;-78
2022/07/05 03:16:46;;;;;;;1.95;0.50;;;15.90;99.90;;;;;;5087429;28;20196;-76
2022/07/05 03:19:15;;;;;;;4.55;2.25;;;15.90;99.90;;;;;;5092556;28;20103;-78
2022/07/05 03:21:42;;;;;;;1.08;0.93;;;15.90;99.90;;;;;;5089089;28;20040;-77
2022/07/05 03:24:08;;;;;;;3.78;1.65;;;15.70;99.90;;;;;;5085927;28;20380;-77
2022/07/05 03:26:34;;;;;;;2.95;1.20;;;15.70;99.90;;;;;;5086971;28;20020;-77
2022/07/05 03:29:00;;;;;;;1.27;1.27;;;15.70;99.90;;;;;;5087358;28;20024;-78
2022/07/05 03:31:26;;;;;;;0.00;0.00;;;15.80;99.90;;;;;;5086572;28;20533;-76
2022/07/05 03:33:52;;;;;;;10.57;1.65;;;15.90;99.90;;;;;;5087813;28;20089;-76
2022/07/05 03:36:18;;;;;;;5.00;0.82;;;15.90;99.90;;;;;;5086482;28;20416;-75
2022/07/05 03:38:44;;;;;;;0.08;0.08;;;15.90;99.90;;;;;;5086576;28;20035;-75
2022/07/05 03:41:10;;;;;;;7.50;3.58;;;15.90;99.90;;;;;;5087843;28;20024;-76
2022/07/05 03:43:36;;;;;;;6.20;1.65;;;15.80;99.90;;;;;;5086358;28;20126;-75
2022/07/05 03:46:02;;;;;;;5.85;3.55;;;15.60;99.90;;;;;;5086745;28;20388;-76
2022/07/05 03:48:28;;;;;;;23.50;3.38;;;15.40;99.90;;;;;;5084982;28;20053;-75
2022/07/05 03:50:54;;;;;;;6.65;3.65;;;15.30;99.90;;;;;;5093742;28;20021;-75
2022/07/05 03:53:20;;;;;;;0.73;0.73;;;15.30;99.90;;;;;;5098086;28;20400;-76
2022/07/05 03:55:46;;;;;;;1.17;0.90;;;15.30;99.90;;;;;;5103785;28;20024;-74
2022/07/05 03:58:13;;;;;;;4.38;1.23;;;15.40;99.90;;;;;;5092524;28;20032;-77
2022/07/05 04:00:39;;;;;;;2.03;1.73;;;15.50;99.90;;;;;;5093334;28;20028;-80
2022/07/05 04:03:05;;;;;;;3.90;1.95;;;15.50;99.90;;;;;;5086840;28;20042;-78
2022/07/05 04:05:31;;;;;;;3.10;2.28;;;15.40;99.90;;;;;;5084806;28;20119;-78
2022/07/05 04:07:57;;;;;;;6.35;4.55;;;15.20;99.90;;;;;;5096119;28;20070;-77
2022/07/05 04:10:24;;;;;;;2.08;1.35;;;15.20;99.90;;;;;;5099565;28;20068;-80
2022/07/05 04:12:50;;;;;;;1.58;1.05;;;15.10;99.90;;;;;;5118394;28;20022;-78
2022/07/05 04:15:19;;;;;;;1.60;0.95;;;15.00;99.90;;;;;;5098562;28;20028;-77
2022/07/05 04:17:50;;;;;;;4.80;2.33;;;15.10;99.90;;;;;;5101629;28;20024;-78
2022/07/05 04:20:16;;;;;;;4.50;1.67;;;15.00;99.90;;;;;;5090878;28;20480;-77
2022/07/05 04:22:42;;;;;;;0.05;0.05;;;15.00;99.90;;;;;;5088763;28;20027;-78
2022/07/05 04:25:18;;;;;;;2.65;1.55;;;14.90;99.90;;;;;;5085126;28;20428;-78
2022/07/05 04:27:52;;;;;;;0.30;0.30;;;15.00;99.90;;;;;;5088947;28;21442;-78
2022/07/05 04:30:24;;;;;;;0.45;0.35;;;15.10;99.90;;;;;;5120108;27;20035;-77
2022/07/05 04:32:51;;;;;;;7.20;1.67;;;15.20;99.90;;;;;;5090399;28;20024;-77
2022/07/05 04:35:17;;;;;;;4.95;1.83;;;15.20;99.90;;;;;;5093798;28;20036;-80
2022/07/05 04:37:43;;;;;;;1.65;0.20;;;15.20;99.90;;;;;;5088383;28;20039;-78
2022/07/05 04:40:11;;;;;;;17.90;2.72;;;15.20;99.90;;;;;;5092451;28;20158;-76
2022/07/05 04:42:37;;;;;;;3.35;1.52;;;15.30;99.90;;;;;;5091308;28;20053;-79
2022/07/05 04:45:04;;;;;;;3.47;2.03;;;15.20;99.90;;;;;;5090838;28;20099;-76
2022/07/05 04:47:30;;;;;;;2.50;1.25;;;15.40;99.90;;;;;;5091358;28;20024;-75
2022/07/05 04:49:57;;;;;;;0.63;0.63;;;15.40;99.90;;;;;;5085281;28;20095;-73
2022/07/05 04:52:25;;;;;;;0.00;0.00;;;15.30;99.90;;;;;;5090043;28;20090;-73
2022/07/05 04:54:51;;;;;;;8.82;2.97;;;15.60;99.90;;;;;;5090501;28;20499;-73
2022/07/05 04:57:17;;;;;;;2.80;2.38;;;15.70;99.90;;;;;;5092108;28;20016;-75
2022/07/05 04:59:43;;;;;;;0.10;0.10;;;15.90;99.90;;;;;;5088375;28;20037;-75
2022/07/05 05:02:09;;;;;;;3.85;1.83;;;15.90;99.90;;;;;;5087920;28;20028;-75
2022/07/05 05:04:35;;;;;;;0.35;0.35;;;16.10;99.90;;;;;;5092453;28;20020;-74
2022/07/05 05:07:02;;;;;;;8.05;2.80;;;16.20;99.90;;;;;;5092799;28;20020;-75
2022/07/05 05:09:28;;;;;;;13.02;2.75;;;16.30;99.90;;;;;;5094300;28;20035;-73
2022/07/05 05:11:54;;;;;;;0.35;0.35;;;16.10;99.90;;;;;;5091041;28;20046;-73
2022/07/05 05:14:20;;;;;;;0.75;0.40;;;16.00;99.90;;;;;;5092201;28;20039;-73
2022/07/05 05:16:46;;;;;;;0.20;0.05;;;16.10;99.90;;;;;;5091353;28;20032;-73
2022/07/05 05:19:12;;;;;;;0.00;0.00;;;16.30;99.90;;;;;;5092271;28;20099;-73
2022/07/05 05:21:38;;;;;;;0.75;0.60;;;16.30;99.90;;;;;;5092747;28;20659;-73
2022/07/05 05:24:05;;;;;;;0.13;0.13;;;16.60;99.90;;;;;;5087661;28;20028;-74
2022/07/05 05:26:31;;;;;;;0.60;0.57;;;16.60;99.90;;;;;;5090243;28;20024;-74
2022/07/05 05:28:57;;;;;;;1.90;1.45;;;16.70;99.90;;;;;;5086391;28;20012;-74
2022/07/05 05:31:23;;;;;;;0.77;0.13;;;16.70;99.90;;;;;;5089176;28;20060;-72
2022/07/05 05:33:49;;;;;;;0.10;0.10;;;16.80;99.90;;;;;;5092710;28;20518;-76
2022/07/05 05:36:15;;;;;;;0.75;0.68;;;16.90;99.90;;;;;;5089842;28;20104;-73
2022/07/05 05:38:42;;;;;;;2.15;0.57;;;17.00;99.90;;;;;;5089380;28;20098;-75
2022/07/05 05:41:08;;;;;;;0.52;0.47;;;17.00;99.90;;;;;;5087657;28;20534;-73
2022/07/05 05:43:34;;;;;;;3.72;2.85;;;16.90;99.90;;;;;;5088957;28;20059;-75
2022/07/05 05:46:00;;;;;;;2.90;1.55;;;16.90;99.90;;;;;;5092106;28;21672;-74
2022/07/05 05:48:26;;;;;;;1.48;0.88;;;16.90;99.90;;;;;;5088943;28;20138;-75
2022/07/05 05:50:52;;;;;;;4.75;2.47;;;17.10;99.90;;;;;;5093329;28;20030;-73
2022/07/05 05:53:18;;;;;;;0.10;0.10;;;17.30;99.90;;;;;;5103474;27;20040;-74
2022/07/05 05:55:45;;;;;;;0.75;0.57;;;17.40;99.90;;;;;;5091474;28;20097;-75
2022/07/05 05:58:16;;;;;;;10.88;0.88;;;17.50;99.90;;;;;;5085423;28;20533;-75
2022/07/05 06:00:43;;;;;;;0.40;0.40;;;17.60;99.90;;;;;;5090670;28;20095;-75
2022/07/05 06:03:10;;;;;;;2.95;1.95;;;17.80;99.90;;;;;;5090451;28;20032;-75
2022/07/05 06:05:36;;;;;;;0.55;0.30;;;18.00;99.90;;;;;;5087727;28;20023;-75
2022/07/05 06:08:02;;;;;;;1.60;1.13;;;17.90;99.90;;;;;;5085944;28;20024;-74
2022/07/05 06:10:31;;;;;;;1.55;1.05;;;17.80;99.90;;;;;;5104597;27;20056;-75
2022/07/05 06:12:59;;;;;;;1.42;0.80;;;17.70;99.90;;;;;;5088928;28;20024;-75
2022/07/05 06:15:25;;;;;;;5.90;1.75;;;17.80;99.90;;;;;;5083799;28;20123;-75
2022/07/05 06:17:52;;;;;;;3.78;3.50;;;17.80;99.90;;;;;;5082454;28;20107;-76
2022/07/05 06:20:23;;;;;;;2.03;1.17;;;17.80;99.90;;;;;;5079080;28;20100;-74
2022/07/05 06:22:50;;;;;;;1.55;1.45;;;17.90;99.90;;;;;;5085123;28;20020;-76
2022/07/05 06:25:17;;;;;;;0.03;0.03;;;17.90;99.90;;;;;;5098363;28;20027;-74
2022/07/05 06:27:48;;;;;;;0.00;0.00;;;18.10;99.90;;;;;;5088909;28;20028;-73
2022/07/05 06:30:19;;;;;;;0.05;0.05;;;18.20;99.90;;;;;;5085174;28;20036;-75
2022/07/05 06:32:47;;;;;;;1.17;1.13;;;18.10;99.90;;;;;;5085164;28;20481;-73
2022/07/05 06:35:13;;;;;;;4.57;2.92;;;18.20;99.90;;;;;;5085714;28;20036;-74
2022/07/05 06:37:58;;;;;;;0.22;0.15;;;18.10;99.90;;;;;;5086356;28;20062;-75
2022/07/05 06:40:30;;;;;;;2.17;1.92;;;18.20;99.90;;;;;;5086642;28;20024;-74
2022/07/05 06:42:58;;;;;;;0.00;0.00;;;18.40;99.90;;;;;;5102227;27;20028;-75
2022/07/05 06:45:25;;;;;;;0.30;0.28;;;18.50;99.90;;;;;;5087304;28;20508;-75
2022/07/05 06:48:01;;;;;;;1.00;0.52;;;18.10;99.90;;;;;;5087067;28;20048;-74
2022/07/05 06:50:29;;;;;;;0.88;0.60;;;18.30;99.90;;;;;;5083631;28;20066;-77
2022/07/05 06:52:55;;;;;;;1.25;0.30;;;18.50;99.90;;;;;;5084502;28;20523;-77
2022/07/05 06:55:22;;;;;;;9.68;2.58;;;18.50;99.90;;;;;;5085342;28;20040;-78
2022/07/05 06:57:48;;;;;;;1.08;0.90;;;18.50;99.90;;;;;;5087871;28;20023;-78
2022/07/05 07:00:15;;;;;;;1.55;0.80;;;18.50;99.90;;;;;;5082753;28;20035;-79
2022/07/05 07:02:41;;;;;;;0.38;0.38;;;18.20;99.90;;;;;;5094933;27;20016;-77
2022/07/05 07:05:12;;;;;;;1.27;0.63;;;18.20;99.90;;;;;;5085883;28;20495;-77
2022/07/05 07:10:22;;;;;;;0.00;0.00;;;18.20;99.90;;;;;;5086441;28;20549;-77
2022/07/05 07:12:48;;;;;;;0.00;0.00;;;18.40;99.90;;;;;;5085903;28;20084;-75
2022/07/05 07:15:14;;;;;;;1.63;1.52;;;18.10;99.90;;;;;;5086150;28;20027;-78
2022/07/05 07:17:40;;;;;;;0.10;0.10;;;18.30;99.90;;;;;;5085896;28;20034;-78
2022/07/05 07:20:07;;;;;;;0.38;0.38;;;18.30;99.90;;;;;;5090061;28;20439;-79
2022/07/05 07:22:33;;;;;;;0.32;0.32;;;18.30;99.90;;;;;;5085820;28;20044;-80
2022/07/05 07:24:59;;;;;;;5.50;4.95;;;18.30;99.90;;;;;;5107751;28;20055;-76
2022/07/05 07:27:25;;;;;;;0.00;0.00;;;18.20;99.90;;;;;;5106991;28;20040;-78
2022/07/05 07:29:51;;;;;;;0.00;0.00;;;18.50;99.90;;;;;;5088699;28;20028;-78
2022/07/05 07:32:18;;;;;;;0.00;0.00;;;18.60;99.90;;;;;;5088496;28;20418;-79
2022/07/05 07:34:44;;;;;;;0.00;0.00;;;18.80;99.90;;;;;;5089722;28;20096;-79
2022/07/05 07:37:13;;;;;;;0.10;0.10;;;19.00;99.90;;;;;;5086994;28;20028;-79
2022/07/05 07:39:40;;;;;;;0.00;0.00;;;18.90;99.90;;;;;;5079862;28;20050;-79
2022/07/05 07:42:07;;;;;;;1.48;1.13;;;18.80;99.90;;;;;;5088150;28;20024;-78
2022/07/05 07:44:33;;;;;;;0.00;0.00;;;18.80;99.90;;;;;;5084655;28;20113;-78
2022/07/05 07:46:59;;;;;;;0.00;0.00;;;18.90;99.90;;;;;;5084268;28;20517;-78
2022/07/05 07:49:25;;;;;;;0.00;0.00;;;19.00;99.90;;;;;;5083600;28;20028;-78
2022/07/05 07:51:52;;;;;;;0.55;0.32;;;19.20;99.90;;;;;;5086696;28;20016;-77
2022/07/05 07:54:18;;;;;;;0.00;0.00;;;18.80;99.90;;;;;;5120277;28;20044;-77
2022/07/05 07:56:44;;;;;;;0.03;0.03;;;18.80;99.90;;;;;;5086396;28;20024;-76
2022/07/05 07:59:11;;;;;;;2.38;1.88;;;18.90;99.90;;;;;;5084699;28;20054;-76
2022/07/05 08:01:37;;;;;;;0.00;0.00;;;18.80;99.90;;;;;;5088881;28;20028;-77
2022/07/05 08:04:03;;;;;;;0.00;0.00;;;18.80;99.90;;;;;;5091961;28;20024;-77
2022/07/05 08:06:29;;;;;;;0.00;0.00;;;18.70;99.90;;;;;;5088096;28;20681;-77
2022/07/05 08:08:56;;;;;;;0.00;0.00;;;18.70;99.90;;;;;;5086455;28;20132;-77
2022/07/05 08:11:22;;;;;;;0.30;0.22;;;18.60;99.90;;;;;;5088572;28;20097;-77
2022/07/05 08:13:48;;;;;;;1.33;1.08;;;18.50;99.90;;;;;;5090293;28;20020;-77
2022/07/05 08:16:15;;;;;;;0.30;0.30;;;18.50;99.90;;;;;;5092072;28;20035;-76
2022/07/05 08:21:31;;;;;;;0.43;0.43;;;18.30;99.90;;;;;;5091514;28;20147;-78
2022/07/05 08:23:59;;;;;;;0.17;0.17;;;18.20;99.90;;;;;;5089125;28;20035;-77
2022/07/05 08:26:26;;;;;;;0.40;0.40;;;18.20;99.90;;;;;;5119619;27;20047;-74
2022/07/05 08:28:52;;;;;;;0.00;0.00;;;18.40;99.90;;;;;;5090777;28;20020;-74
2022/07/05 08:31:18;;;;;;;0.00;0.00;;;18.50;99.90;;;;;;5090899;28;20020;-75
2022/07/05 08:33:44;;;;;;;0.08;0.08;;;18.60;99.90;;;;;;5090047;28;20038;-74
2022/07/05 08:36:10;;;;;;;0.00;0.00;;;18.60;99.90;;;;;;5091079;28;20024;-76
2022/07/05 08:38:36;;;;;;;0.00;0.00;;;18.80;99.90;;;;;;5092264;28;20020;-76
2022/07/05 08:41:06;;;;;;;4.03;2.08;;;18.90;99.90;;;;;;5092040;28;20107;-77
2022/07/05 08:43:33;;;;;;;0.00;0.00;;;19.00;99.90;;;;;;5103824;28;20040;-77
2022/07/05 08:46:00;;;;;;;1.98;1.85;;;18.80;99.90;;;;;;5090961;28;20131;-76
2022/07/05 08:48:28;;;;;;;0.88;0.88;;;18.20;99.90;;;;;;5075764;28;20036;-75
2022/07/05 08:50:56;;;;;;;4.38;4.15;;;18.20;99.90;;;;;;5074303;28;20028;-76
2022/07/05 08:53:24;;;;;;;0.63;0.63;;;18.40;99.90;;;;;;5083003;28;20530;-75
2022/07/05 08:55:51;;;;;;;0.08;0.08;;;18.40;99.90;;;;;;5086551;28;20036;-79
2022/07/05 08:58:17;;;;;;;0.73;0.73;;;18.50;99.90;;;;;;5119477;27;20051;-80
2022/07/05 09:00:43;;;;;;;0.00;0.00;;;18.70;99.90;;;;;;5089447;28;20463;-77
2022/07/05 09:03:09;;;;;;;3.53;0.30;;;18.90;99.90;;;;;;5089288;28;20063;-73
2022/07/05 09:05:45;;;;;;;0.00;0.00;;;18.80;99.90;;;;;;5090553;28;20028;-76
2022/07/05 09:08:17;;;;;;;0.00;0.00;;;18.90;99.90;;;;;;5092412;28;20024;-76
2022/07/05 09:10:44;;;;;;;0.57;0.57;;;19.00;99.90;;;;;;5089222;28;20036;-76
2022/07/05 09:13:10;;;;;;;0.00;0.00;;;19.20;99.90;;;;;;5123495;27;20130;-77
2022/07/05 09:15:39;;;;;;;1.10;0.95;;;19.30;99.90;;;;;;5085764;28;20102;-77
2022/07/05 09:18:05;;;;;;;0.00;0.00;;;19.30;99.90;;;;;;5090348;28;20043;-75
2022/07/05 09:20:31;;;;;;;0.00;0.00;;;19.30;99.90;;;;;;5089251;28;20052;-77
2022/07/05 09:22:57;;;;;;;1.38;1.27;;;19.40;99.90;;;;;;5086968;28;20504;-77
2022/07/05 09:25:31;;;;;;;0.00;0.00;;;19.50;99.90;;;;;;5089815;28;20051;-78
2022/07/05 09:28:04;;;;;;;0.00;0.00;;;19.40;99.90;;;;;;5088070;28;20016;-79
2022/07/05 09:30:41;;;;;;;0.00;0.00;;;19.10;99.90;;;;;;5124178;27;20024;-73
2022/07/05 09:33:08;;;;;;;0.00;0.00;;;18.70;99.90;;;;;;5091807;28;20028;-75
2022/07/05 09:35:41;;;;;;;0.00;0.00;;;18.70;99.90;;;;;;5090792;28;20020;-74
2022/07/05 09:38:20;;;;;;;0.00;0.00;;;18.90;99.90;;;;;;5087596;28;20016;-79
2022/07/05 09:41:16;;;;;;;0.00;0.00;;;19.10;99.90;;;;;;5091206;28;20020;-79
2022/07/05 09:43:42;;;;;;;0.00;0.00;;;19.30;99.90;;;;;;5080216;28;20036;-75
2022/07/05 09:46:08;;;;;;;0.00;0.00;;;19.30;99.90;;;;;;5092519;28;20322;-80
2022/07/05 09:48:34;;;;;;;0.00;0.00;;;19.20;99.90;;;;;;5093854;28;20039;-76
2022/07/05 09:51:11;;;;;;;0.00;0.00;;;19.00;99.90;;;;;;5096864;28;20528;-76
2022/07/05 09:53:49;;;;;;;0.08;0.08;;;18.80;99.90;;;;;;5088844;28;20055;-75
2022/07/05 09:56:15;;;;;;;0.00;0.00;;;18.80;99.90;;;;;;5093594;28;20422;-75
2022/07/05 09:58:41;;;;;;;0.00;0.00;;;19.10;99.90;;;;;;5093409;28;20111;-75
2022/07/05 10:01:43;;;;;;;0.00;0.00;;;19.00;99.90;;;;;;5106887;28;20068;-78
2022/07/05 10:04:09;;;;;;;1.45;0.70;;;19.10;99.90;;;;;;5026304;28;20460;-76
2022/07/05 10:06:36;;;;;;;0.00;0.00;;;19.00;99.90;;;;;;5075966;28;20116;-81
2022/07/05 10:09:02;;;;;;;0.00;0.00;;;19.00;99.90;;;;;;5093373;28;20024;-80
2022/07/05 10:11:28;;;;;;;0.10;0.00;;;19.00;99.90;;;;;;5092426;28;20039;-78
2022/07/05 10:13:54;;;;;;;0.00;0.00;;;19.00;99.90;;;;;;5107945;28;20084;-78
2022/07/05 10:16:24;;;;;;;0.00;0.00;;;19.20;99.90;;;;;;5096368;27;20035;-79
2022/07/05 10:18:52;;;;;;;0.00;0.00;;;19.30;99.90;;;;;;5082511;28;20031;-78
2022/07/05 10:21:19;;;;;;;0.00;0.00;;;19.40;99.90;;;;;;5109304;27;20024;-76
2022/07/05 10:23:55;;;;;;;0.65;0.65;;;19.30;99.90;;;;;;5086370;28;20027;-79
2022/07/05 10:26:23;;;;;;;0.00;0.00;;;19.20;99.90;;;;;;5091134;28;20114;-77
2022/07/05 10:28:52;;;;;;;0.00;0.00;;;19.40;99.90;;;;;;5105213;28;20111;-79
2022/07/05 10:31:19;;;;;;;0.28;0.28;;;19.50;99.90;;;;;;5081011;28;20039;-78
2022/07/05 10:33:45;;;;;;;0.00;0.00;;;19.70;99.90;;;;;;5093094;28;20027;-77
2022/07/05 10:36:13;;;;;;;1.85;1.27;;;19.90;99.90;;;;;;5112391;28;20467;-76
2022/07/05 10:38:47;;;;;;;0.00;0.00;;;19.80;99.90;;;;;;5110644;27;20051;-77
2022/07/05 10:41:18;;;;;;;0.00;0.00;;;19.80;99.90;;;;;;5111192;27;20028;-75
2022/07/05 10:43:44;;;;;;;4.40;0.80;;;19.60;99.90;;;;;;5109321;28;20031;-75
2022/07/05 10:46:10;;;;;;;0.50;0.50;;;19.50;99.90;;;;;;5090273;28;20028;-76
2022/07/05 10:48:36;;;;;;;20.00;4.40;;;19.50;99.90;;;;;;5109736;28;20023;-77
2022/07/05 10:51:14;;;;;;;0.00;0.00;;;19.60;99.90;;;;;;5111270;28;20027;-77
2022/07/05 10:53:40;;;;;;;0.00;0.00;;;19.70;99.90;;;;;;5114657;27;20047;-76
2022/07/05 10:56:06;;;;;;;0.00;0.00;;;19.60;99.90;;;;;;5111994;27;20028;-76
2022/07/05 10:58:40;;;;;;;0.03;0.03;;;19.80;99.90;;;;;;5114274;27;20038;-77
2022/07/05 11:01:21;;;;;;;0.20;0.20;;;19.80;99.90;;;;;;5108997;27;20020;-75
2022/07/05 11:03:49;;;;;;;0.00;0.00;;;19.80;99.90;;;;;;5109751;28;20483;-75
2022/07/05 11:06:24;;;;;;;0.00;0.00;;;19.60;99.90;;;;;;5109626;27;20023;-77
2022/07/05 11:08:59;;;;;;;0.00;0.00;;;19.70;99.90;;;;;;5123239;27;20407;-77
2022/07/05 11:11:31;;;;;;;0.00;0.00;;;19.80;99.90;;;;;;5104097;27;20179;-76
2022/07/05 11:13:58;;;;;;;0.30;0.13;;;19.70;99.90;;;;;;5111980;27;20646;-76
2022/07/05 11:16:36;;;;;;;0.52;0.32;;;19.60;99.90;;;;;;5113662;27;20051;-75
2022/07/05 11:19:20;;;;;;;0.10;0.05;;;19.60;99.90;;;;;;5112440;27;20028;-75
2022/07/05 11:22:08;;;;;;;0.50;0.47;;;19.50;99.90;;;;;;5116857;27;20023;-76
2022/07/05 11:24:38;;;;;;;0.28;0.28;;;19.60;99.90;;;;;;5098418;28;20383;-75
2022/07/05 11:27:10;;;;;;;0.10;0.00;;;19.80;99.90;;;;;;5096040;28;20493;-77
2022/07/05 11:29:46;;;;;;;0.00;0.00;;;20.00;99.90;;;;;;5121256;28;20059;-76
2022/07/05 11:32:17;;;;;;;0.00;0.00;;;19.80;99.90;;;;;;5085713;28;20020;-77
2022/07/05 11:34:53;;;;;;;0.00;0.00;;;19.70;99.90;;;;;;5126690;27;20026;-77
2022/07/05 11:37:24;;;;;;;0.00;0.00;;;19.90;99.90;;;;;;5110376;28;20022;-77
2022/07/05 11:40:05;;;;;;;0.20;0.20;;;20.00;99.90;;;;;;5114127;28;20023;-78
2022/07/05 11:42:34;;;;;;;0.63;0.25;;;20.10;99.90;;;;;;5092341;28;20122;-77
2022/07/05 11:45:01;;;;;;;0.00;0.00;;;20.20;99.90;;;;;;5091009;27;20031;-76
2022/07/05 11:47:27;;;;;;;0.00;0.00;;;20.00;99.90;;;;;;5092961;28;20415;-79
2022/07/05 11:49:55;;;;;;;0.08;0.08;;;20.00;99.90;;;;;;5095448;28;20028;-77
2022/07/05 11:52:28;;;;;;;0.00;0.00;;;20.10;99.90;;;;;;5115482;28;20015;-76
2022/07/05 11:54:56;;;;;;;0.00;0.00;;;20.00;99.90;;;;;;5105084;28;20074;-79
2022/07/05 11:57:23;;;;;;;0.35;0.20;;;20.00;99.90;;;;;;5100583;28;20051;-77
2022/07/05 11:59:50;;;;;;;0.00;0.00;;;20.10;99.90;;;;;;5094165;28;20024;-76
2022/07/05 12:02:16;;;;;;;0.00;0.00;;;20.30;99.90;;;;;;5117048;28;20027;-79
2022/07/05 12:04:51;;;;;;;0.00;0.00;;;20.40;99.90;;;;;;5100195;28;20029;-80
2022/07/05 12:07:26;;;;;;;0.10;0.10;;;20.50;99.90;;;;;;5099027;28;20042;-79
2022/07/05 12:12:42;;;;;;;0.00;0.00;;;20.50;99.90;;;;;;5115830;28;20027;-77
2022/07/05 12:15:13;;;;;;;0.00;0.00;;;20.60;99.90;;;;;;5129974;28;20027;-78
2022/07/05 12:17:40;;;;;;;0.28;0.28;;;20.50;99.90;;;;;;5114924;28;20034;-79
2022/07/05 12:20:09;;;;;;;0.00;0.00;;;20.50;99.90;;;;;;5113867;28;20020;-77
2022/07/05 12:22:41;;;;;;;0.00;0.00;;;20.60;99.90;;;;;;5112500;28;20027;-78
2022/07/05 12:25:12;;;;;;;0.00;0.00;;;20.60;99.90;;;;;;5094466;28;20036;-77
2022/07/05 12:27:40;;;;;;;0.00;0.00;;;20.60;99.90;;;;;;5094064;28;20088;-77
2022/07/05 12:30:09;;;;;;;0.00;0.00;;;20.50;99.90;;;;;;5098331;28;20068;-76
2022/07/05 12:32:57;;;;;;;0.00;0.00;;;20.70;99.90;;;;;;5102009;28;20110;-77
2022/07/05 12:35:41;;;;;;;0.00;0.00;;;20.70;99.90;;;;;;5113296;28;20047;-78
2022/07/05 12:38:18;;;;;;;0.00;0.00;;;20.80;99.90;;;;;;5086808;28;20046;-77
2022/07/05 12:40:46;;;;;;;4.88;4.40;;;20.90;99.90;;;;;;5115261;28;20100;-76
2022/07/05 12:43:14;;;;;;;0.00;0.00;;;21.00;99.90;;;;;;5093805;28;20026;-76
2022/07/05 12:45:58;;;;;;;0.00;0.00;;;21.10;99.90;;;;;;5103293;28;20015;-77
2022/07/05 12:48:40;;;;;;;0.00;0.00;;;20.90;99.90;;;;;;5106530;28;20479;-76
2022/07/05 12:51:30;;;;;;;0.00;0.00;;;20.90;99.90;;;;;;5094928;28;20023;-81
2022/07/05 12:59:32;;;;;;;0.00;0.00;;;21.10;99.90;;;;;;5096567;28;20046;-78
2022/07/05 13:01:58;;;;;;;0.00;0.00;;;21.00;99.90;;;;;;5094032;28;20028;-78
2022/07/05 13:04:24;;;;;;;0.35;0.35;;;21.20;99.90;;;;;;5094257;28;20039;-78